createdAt,value
2018-05-19T00:00:56.396Z,4.00
2018-05-19T00:01:56.541Z,4.00
2018-05-19T00:02:56.500Z,4.00
2018-05-19T00:03:56.544Z,4.00
2018-05-19T00:04:56.566Z,4.00
2018-05-19T00:05:56.623Z,4.00
2018-05-19T00:06:56.660Z,4.00
2018-05-19T00:07:56.931Z,4.00
2018-05-19T00:08:56.767Z,4.00
2018-05-19T00:09:56.801Z,4.00
2018-05-19T00:10:56.855Z,4.00
2018-05-19T00:11:56.906Z,4.00
2018-05-19T00:12:57.051Z,4.00
2018-05-19T00:13:57.011Z,4.00
2018-05-19T00:14:57.046Z,4.00
2018-05-19T00:15:57.103Z,4.00
2018-05-19T00:16:57.157Z,4.00
2018-05-19T00:17:57.177Z,4.00
2018-05-19T00:18:57.233Z,4.00
2018-05-19T00:19:57.282Z,4.00
2018-05-19T00:20:57.325Z,4.00
2018-05-19T00:21:57.371Z,4.00
2018-05-19T00:22:57.527Z,4.00
2018-05-19T00:23:57.486Z,4.00
2018-05-19T00:24:57.531Z,4.00
2018-05-19T00:25:57.561Z,4.00
2018-05-19T00:26:57.615Z,4.00
2018-05-19T00:27:57.663Z,4.00
2018-05-19T00:28:57.712Z,4.00
2018-05-19T00:29:57.846Z,4.00
2018-05-19T00:30:57.811Z,4.00
2018-05-19T00:31:57.842Z,4.00
2018-05-19T00:32:57.895Z,4.00
2018-05-19T00:33:57.954Z,4.00
2018-05-19T00:34:57.985Z,4.00
2018-05-19T00:35:58.132Z,4.00
2018-05-19T00:36:58.095Z,4.00
2018-05-19T00:37:58.130Z,4.00
2018-05-19T00:38:58.171Z,4.00
2018-05-19T00:39:58.223Z,4.00
2018-05-19T00:40:58.265Z,4.00
2018-05-19T00:41:58.315Z,4.00
2018-05-19T00:42:58.360Z,4.00
2018-05-19T00:43:58.419Z,4.00
2018-05-19T00:44:58.462Z,4.00
2018-05-19T00:45:58.599Z,4.00
2018-05-19T00:46:58.550Z,4.00
2018-05-19T00:47:58.593Z,4.00
2018-05-19T00:48:58.658Z,4.00
2018-05-19T00:49:58.693Z,4.00
2018-05-19T00:50:58.744Z,0.00
2018-05-19T00:51:58.789Z,0.00
2018-05-19T00:52:58.944Z,0.00
2018-05-19T00:53:58.881Z,0.00
2018-05-19T00:54:58.914Z,0.00
2018-05-19T00:55:58.977Z,0.00
2018-05-19T00:56:59.009Z,0.00
2018-05-19T00:57:59.258Z,0.00
2018-05-19T00:58:59.110Z,0.00
2018-05-19T00:59:59.147Z,0.00
2018-05-19T01:00:59.196Z,0.00
2018-05-19T01:01:59.273Z,0.00
2018-05-19T01:02:59.392Z,0.00
2018-05-19T01:03:59.337Z,0.00
2018-05-19T01:04:59.395Z,0.00
2018-05-19T01:05:59.437Z,0.00
2018-05-19T01:06:59.491Z,0.00
2018-05-19T01:07:59.735Z,0.00
2018-05-19T01:08:59.683Z,0.00
2018-05-19T01:09:59.624Z,0.00
2018-05-19T01:10:59.670Z,0.00
2018-05-19T01:11:59.723Z,0.00
2018-05-19T01:12:59.758Z,0.00
2018-05-19T01:14:00.020Z,0.00
2018-05-19T01:14:59.854Z,0.00
2018-05-19T01:15:59.895Z,0.00
2018-05-19T01:16:59.963Z,0.00
2018-05-19T01:18:00.002Z,0.00
2018-05-19T01:19:00.139Z,0.00
2018-05-19T01:20:00.088Z,0.00
2018-05-19T01:21:00.127Z,0.00
2018-05-19T01:22:00.179Z,0.00
2018-05-19T01:23:00.238Z,0.00
2018-05-19T01:24:00.329Z,0.00
2018-05-19T01:25:00.522Z,0.00
2018-05-19T01:26:00.367Z,0.00
2018-05-19T01:27:00.462Z,0.00
2018-05-19T01:28:00.472Z,0.00
2018-05-19T01:29:00.527Z,0.00
2018-05-19T01:30:00.668Z,0.00
2018-05-19T01:31:00.612Z,0.00
2018-05-19T01:32:00.648Z,0.00
2018-05-19T01:33:00.722Z,0.00
2018-05-19T01:34:00.755Z,0.00
2018-05-19T01:35:00.794Z,0.00
2018-05-19T01:36:01.049Z,0.00
2018-05-19T01:37:00.889Z,0.00
2018-05-19T01:38:00.926Z,0.00
2018-05-19T01:39:00.997Z,0.00
2018-05-19T01:40:01.029Z,0.00
2018-05-19T01:41:01.084Z,0.00
2018-05-19T01:42:01.211Z,0.00
2018-05-19T01:43:01.174Z,0.00
2018-05-19T01:44:01.211Z,0.00
2018-05-19T01:45:01.281Z,0.00
2018-05-19T01:46:01.309Z,0.00
2018-05-19T01:47:01.362Z,0.00
2018-05-19T01:48:01.414Z,0.00
2018-05-19T01:49:01.474Z,0.00
2018-05-19T01:50:01.493Z,0.00
2018-05-19T01:51:01.541Z,0.00
2018-05-19T01:52:01.585Z,0.00
2018-05-19T01:53:01.736Z,0.00
2018-05-19T01:54:01.677Z,0.00
2018-05-19T01:55:01.724Z,0.00
2018-05-19T01:56:01.783Z,0.00
2018-05-19T01:57:01.818Z,0.00
2018-05-19T01:58:01.852Z,0.00
2018-05-19T01:59:02.028Z,0.00
2018-05-19T02:00:01.961Z,0.00
2018-05-19T02:01:02.015Z,0.00
2018-05-19T02:02:02.057Z,0.00
2018-05-19T02:03:02.158Z,0.00
2018-05-19T02:04:02.357Z,0.00
2018-05-19T02:05:02.183Z,0.00
2018-05-19T02:06:02.301Z,0.00
2018-05-19T02:07:02.288Z,0.00
2018-05-19T02:08:02.392Z,0.00
2018-05-19T02:09:02.377Z,0.00
2018-05-19T02:10:02.711Z,0.00
2018-05-19T02:11:02.629Z,0.00
2018-05-19T02:12:02.565Z,0.00
2018-05-19T02:13:02.566Z,0.00
2018-05-19T02:14:02.599Z,0.00
2018-05-19T02:15:02.651Z,0.00
2018-05-19T02:16:02.987Z,0.00
2018-05-19T02:17:02.843Z,0.00
2018-05-19T02:18:02.839Z,0.00
2018-05-19T02:19:02.881Z,0.00
2018-05-19T02:20:02.951Z,0.00
2018-05-19T02:21:02.934Z,0.00
2018-05-19T02:22:03.166Z,0.00
2018-05-19T02:23:03.296Z,0.00
2018-05-19T02:24:03.065Z,0.00
2018-05-19T02:25:03.132Z,0.00
2018-05-19T02:26:03.161Z,0.00
2018-05-19T02:27:03.265Z,0.00
2018-05-19T02:28:03.374Z,0.00
2018-05-19T02:29:03.347Z,0.00
2018-05-19T02:30:03.370Z,0.00
2018-05-19T02:31:03.392Z,0.00
2018-05-19T02:32:03.450Z,0.00
2018-05-19T02:33:03.597Z,0.00
2018-05-19T02:34:03.551Z,0.00
2018-05-19T02:35:03.584Z,0.00
2018-05-19T02:36:03.639Z,0.00
2018-05-19T02:37:03.681Z,0.00
2018-05-19T02:38:03.726Z,0.00
2018-05-19T02:39:03.774Z,0.00
2018-05-19T02:40:03.818Z,0.00
2018-05-19T02:41:03.864Z,0.00
2018-05-19T02:42:03.909Z,0.00
2018-05-19T02:43:04.072Z,0.00
2018-05-19T02:44:04.016Z,0.00
2018-05-19T02:45:04.068Z,0.00
2018-05-19T02:46:04.113Z,0.00
2018-05-19T02:47:04.148Z,0.00
2018-05-19T02:48:04.191Z,0.00
2018-05-19T02:49:04.253Z,0.00
2018-05-19T02:50:04.381Z,0.00
2018-05-19T02:51:04.342Z,0.00
2018-05-19T02:52:04.374Z,0.00
2018-05-19T02:53:04.521Z,0.00
2018-05-19T02:54:04.477Z,0.00
2018-05-19T02:55:04.524Z,0.00
2018-05-19T02:56:04.572Z,0.00
2018-05-19T02:57:04.631Z,0.00
2018-05-19T02:58:04.650Z,0.00
2018-05-19T02:59:04.700Z,0.00
2018-05-19T03:00:04.856Z,0.00
2018-05-19T03:01:04.792Z,0.00
2018-05-19T03:02:04.839Z,0.00
2018-05-19T03:03:04.878Z,0.00
2018-05-19T03:04:04.934Z,0.00
2018-05-19T03:05:05.190Z,0.00
2018-05-19T03:06:05.036Z,0.00
2018-05-19T03:07:05.080Z,0.00
2018-05-19T03:08:05.119Z,0.00
2018-05-19T03:09:05.163Z,0.00
2018-05-19T03:10:05.225Z,0.00
2018-05-19T03:11:05.267Z,0.00
2018-05-19T03:12:05.320Z,0.00
2018-05-19T03:13:05.346Z,0.00
2018-05-19T03:14:05.412Z,0.00
2018-05-19T03:15:05.544Z,0.00
2018-05-19T03:16:05.486Z,0.00
2018-05-19T03:17:05.607Z,0.00
2018-05-19T03:18:05.570Z,0.00
2018-05-19T03:19:05.647Z,0.00
2018-05-19T03:20:05.670Z,0.00
2018-05-19T03:21:05.712Z,0.00
2018-05-19T03:22:05.871Z,0.00
2018-05-19T03:23:05.819Z,0.00
2018-05-19T03:24:05.856Z,0.00
2018-05-19T03:25:05.913Z,0.00
2018-05-19T03:26:05.967Z,0.00
2018-05-19T03:27:06.206Z,0.00
2018-05-19T03:28:06.035Z,0.00
2018-05-19T03:29:06.112Z,0.00
2018-05-19T03:30:06.125Z,0.00
2018-05-19T03:31:06.178Z,0.00
2018-05-19T03:32:06.240Z,0.00
2018-05-19T03:33:06.395Z,0.00
2018-05-19T03:34:06.331Z,0.00
2018-05-19T03:35:06.381Z,0.00
2018-05-19T03:36:06.442Z,0.00
2018-05-19T03:37:06.505Z,0.00
2018-05-19T03:38:06.513Z,0.00
2018-05-19T03:39:06.548Z,0.00
2018-05-19T03:40:06.612Z,0.00
2018-05-19T03:41:06.634Z,0.00
2018-05-19T03:42:06.682Z,0.00
2018-05-19T03:43:06.851Z,0.00
2018-05-19T03:44:06.787Z,0.00
2018-05-19T03:45:06.825Z,0.00
2018-05-19T03:46:06.877Z,0.00
2018-05-19T03:47:06.947Z,0.00
2018-05-19T03:48:06.987Z,0.00
2018-05-19T03:49:07.006Z,0.00
2018-05-19T03:50:07.065Z,0.00
2018-05-19T03:51:07.114Z,0.00
2018-05-19T03:52:07.145Z,0.00
2018-05-19T03:53:07.302Z,0.00
2018-05-19T03:54:07.253Z,0.00
2018-05-19T03:55:07.310Z,0.00
2018-05-19T03:56:07.332Z,0.00
2018-05-19T03:57:07.393Z,0.00
2018-05-19T03:58:07.448Z,0.00
2018-05-19T03:59:07.488Z,0.00
2018-05-19T04:00:07.526Z,0.00
2018-05-19T04:01:07.570Z,0.00
2018-05-19T04:02:07.621Z,0.00
2018-05-19T04:03:07.671Z,0.00
2018-05-19T04:04:07.802Z,0.00
2018-05-19T04:05:07.766Z,0.00
2018-05-19T04:06:07.806Z,0.00
2018-05-19T04:07:07.840Z,0.00
2018-05-19T04:08:07.904Z,0.00
2018-05-19T04:09:07.946Z,0.00
2018-05-19T04:10:08.098Z,0.00
2018-05-19T04:11:08.035Z,0.00
2018-05-19T04:12:08.096Z,0.00
2018-05-19T04:13:08.133Z,0.00
2018-05-19T04:14:08.222Z,0.00
2018-05-19T04:15:08.216Z,0.00
2018-05-19T04:16:08.460Z,0.00
2018-05-19T04:17:08.302Z,0.00
2018-05-19T04:18:08.372Z,0.00
2018-05-19T04:19:08.417Z,0.00
2018-05-19T04:20:08.460Z,0.00
2018-05-19T04:21:08.600Z,0.00
2018-05-19T04:22:08.544Z,0.00
2018-05-19T04:23:08.602Z,0.00
2018-05-19T04:24:08.629Z,0.00
2018-05-19T04:25:08.697Z,0.00
2018-05-19T04:26:08.728Z,0.00
2018-05-19T04:27:08.771Z,0.00
2018-05-19T04:28:08.915Z,0.00
2018-05-19T04:29:08.871Z,0.00
2018-05-19T04:30:08.926Z,0.00
2018-05-19T04:31:08.970Z,0.00
2018-05-19T04:32:09.015Z,0.00
2018-05-19T04:33:09.070Z,0.00
2018-05-19T04:34:09.105Z,0.00
2018-05-19T04:35:09.154Z,0.00
2018-05-19T04:36:09.189Z,0.00
2018-05-19T04:37:09.245Z,0.00
2018-05-19T04:38:09.483Z,0.00
2018-05-19T04:39:09.576Z,0.00
2018-05-19T04:40:09.383Z,0.00
2018-05-19T04:41:09.420Z,0.00
2018-05-19T04:42:09.465Z,0.00
2018-05-19T04:43:09.540Z,0.00
2018-05-19T04:44:09.586Z,0.00
2018-05-19T04:45:09.830Z,0.00
2018-05-19T04:46:09.667Z,0.00
2018-05-19T04:47:09.704Z,0.00
2018-05-19T04:48:09.756Z,0.00
2018-05-19T04:49:09.787Z,0.00
2018-05-19T04:50:09.936Z,0.00
2018-05-19T04:51:09.890Z,0.00
2018-05-19T04:52:09.933Z,0.00
2018-05-19T04:53:09.973Z,0.00
2018-05-19T04:54:10.023Z,0.00
2018-05-19T04:55:10.071Z,0.00
2018-05-19T04:56:10.315Z,0.00
2018-05-19T04:57:10.161Z,0.00
2018-05-19T04:58:10.204Z,0.00
2018-05-19T04:59:10.260Z,0.00
2018-05-19T05:00:10.306Z,0.00
2018-05-19T05:01:10.342Z,0.00
2018-05-19T05:02:10.502Z,0.00
2018-05-19T05:03:10.454Z,0.00
2018-05-19T05:04:10.500Z,0.00
2018-05-19T05:05:10.533Z,0.00
2018-05-19T05:06:10.592Z,0.00
2018-05-19T05:07:10.642Z,0.00
2018-05-19T05:08:10.890Z,0.00
2018-05-19T05:09:10.729Z,0.00
2018-05-19T05:10:10.773Z,0.00
2018-05-19T05:11:10.827Z,0.00
2018-05-19T05:12:10.854Z,0.00
2018-05-19T05:13:11.009Z,0.00
2018-05-19T05:14:10.951Z,0.00
2018-05-19T05:15:10.997Z,0.00
2018-05-19T05:16:11.050Z,0.00
2018-05-19T05:17:11.108Z,0.00
2018-05-19T05:18:11.140Z,0.00
2018-05-19T05:19:11.178Z,0.00
2018-05-19T05:20:11.335Z,0.00
2018-05-19T05:21:11.269Z,0.00
2018-05-19T05:22:11.328Z,0.00
2018-05-19T05:23:11.379Z,0.00
2018-05-19T05:24:11.429Z,0.00
2018-05-19T05:25:11.469Z,0.00
2018-05-19T05:26:11.501Z,0.00
2018-05-19T05:27:11.563Z,0.00
2018-05-19T05:28:11.598Z,0.00
2018-05-19T05:29:11.646Z,0.00
2018-05-19T05:30:11.888Z,0.00
2018-05-19T05:31:11.744Z,0.00
2018-05-19T05:32:11.785Z,0.00
2018-05-19T05:33:11.832Z,0.00
2018-05-19T05:34:11.878Z,0.00
2018-05-19T05:35:12.019Z,0.00
2018-05-19T05:36:11.969Z,0.00
2018-05-19T05:37:12.036Z,0.00
2018-05-19T05:38:12.074Z,0.00
2018-05-19T05:39:12.113Z,0.00
2018-05-19T05:40:12.174Z,0.00
2018-05-19T05:41:12.414Z,0.00
2018-05-19T05:42:12.248Z,0.00
2018-05-19T05:43:12.374Z,0.00
2018-05-19T05:44:12.410Z,0.00
2018-05-19T05:45:12.382Z,0.00
2018-05-19T05:46:12.445Z,0.00
2018-05-19T05:47:12.579Z,0.00
2018-05-19T05:48:12.531Z,0.00
2018-05-19T05:49:12.578Z,0.00
2018-05-19T05:50:12.667Z,0.00
2018-05-19T05:51:12.673Z,0.00
2018-05-19T05:52:12.710Z,0.00
2018-05-19T05:53:12.984Z,0.00
2018-05-19T05:54:12.795Z,0.00
2018-05-19T05:55:12.847Z,0.00
2018-05-19T05:56:12.899Z,0.00
2018-05-19T05:57:12.957Z,0.00
2018-05-19T05:58:13.107Z,0.00
2018-05-19T05:59:13.039Z,0.00
2018-05-19T06:00:13.103Z,0.00
2018-05-19T06:01:13.145Z,0.00
2018-05-19T06:02:13.184Z,0.00
2018-05-19T06:03:13.218Z,0.00
2018-05-19T06:04:13.483Z,0.00
2018-05-19T06:05:13.323Z,0.00
2018-05-19T06:06:13.409Z,0.00
2018-05-19T06:07:13.408Z,0.00
2018-05-19T06:08:13.453Z,0.00
2018-05-19T06:09:13.509Z,0.00
2018-05-19T06:10:13.659Z,0.00
2018-05-19T06:11:13.604Z,0.00
2018-05-19T06:12:13.674Z,0.00
2018-05-19T06:13:13.681Z,0.00
2018-05-19T06:14:13.730Z,0.00
2018-05-19T06:15:13.772Z,0.00
2018-05-19T06:16:14.036Z,0.00
2018-05-19T06:17:13.878Z,0.00
2018-05-19T06:18:13.925Z,0.00
2018-05-19T06:19:13.966Z,0.00
2018-05-19T06:20:14.023Z,0.00
2018-05-19T06:21:14.074Z,0.00
2018-05-19T06:22:14.206Z,0.00
2018-05-19T06:23:14.157Z,0.00
2018-05-19T06:24:14.208Z,0.00
2018-05-19T06:25:14.257Z,0.00
2018-05-19T06:26:14.297Z,0.00
2018-05-19T06:27:14.347Z,0.00
2018-05-19T06:28:14.575Z,0.00
2018-05-19T06:29:14.434Z,0.00
2018-05-19T06:30:14.471Z,0.00
2018-05-19T06:31:14.524Z,0.00
2018-05-19T06:32:14.582Z,0.00
2018-05-19T06:33:14.721Z,0.00
2018-05-19T06:34:14.671Z,0.00
2018-05-19T06:35:14.719Z,0.00
2018-05-19T06:36:14.767Z,0.00
2018-05-19T06:37:14.805Z,0.00
2018-05-19T06:38:14.852Z,0.00
2018-05-19T06:39:15.108Z,0.00
2018-05-19T06:40:14.933Z,0.00
2018-05-19T06:41:14.997Z,0.00
2018-05-19T06:42:15.050Z,0.00
2018-05-19T06:43:15.070Z,0.00
2018-05-19T06:44:15.134Z,0.00
2018-05-19T06:45:15.161Z,0.00
2018-05-19T06:46:15.225Z,0.00
2018-05-19T06:47:15.267Z,0.00
2018-05-19T06:48:15.316Z,0.00
2018-05-19T06:49:15.554Z,0.00
2018-05-19T06:50:15.400Z,0.00
2018-05-19T06:51:15.457Z,0.00
2018-05-19T06:52:15.487Z,0.00
2018-05-19T06:53:15.531Z,0.00
2018-05-19T06:54:15.988Z,0.00
2018-05-19T06:55:15.634Z,0.00
2018-05-19T06:56:15.670Z,0.00
2018-05-19T06:57:15.720Z,0.00
2018-05-19T06:58:15.779Z,0.00
2018-05-19T06:59:15.831Z,0.00
2018-05-19T07:00:15.954Z,0.00
2018-05-19T07:01:15.917Z,0.00
2018-05-19T07:02:15.964Z,0.00
2018-05-19T07:03:15.998Z,0.00
2018-05-19T07:04:16.036Z,0.00
2018-05-19T07:05:16.301Z,0.00
2018-05-19T07:06:16.158Z,0.00
2018-05-19T07:07:16.175Z,0.00
2018-05-19T07:08:16.237Z,0.00
2018-05-19T07:09:16.288Z,0.00
2018-05-19T07:10:16.329Z,0.00
2018-05-19T07:11:16.369Z,0.00
2018-05-19T07:12:16.416Z,0.00
2018-05-19T07:13:16.463Z,0.00
2018-05-19T07:14:16.505Z,0.00
2018-05-19T07:15:16.656Z,0.00
2018-05-19T07:16:16.808Z,0.00
2018-05-19T07:17:16.647Z,0.00
2018-05-19T07:18:16.699Z,0.00
2018-05-19T07:19:16.729Z,0.00
2018-05-19T07:20:16.800Z,0.00
2018-05-19T07:21:16.830Z,0.00
2018-05-19T07:22:16.971Z,0.00
2018-05-19T07:23:16.993Z,0.00
2018-05-19T07:24:16.976Z,0.00
2018-05-19T07:25:17.015Z,0.00
2018-05-19T07:26:17.060Z,0.00
2018-05-19T07:27:17.311Z,0.00
2018-05-19T07:28:17.141Z,0.00
2018-05-19T07:29:17.191Z,0.00
2018-05-19T07:30:17.245Z,0.00
2018-05-19T07:31:17.286Z,0.00
2018-05-19T07:32:17.327Z,0.00
2018-05-19T07:33:17.487Z,0.00
2018-05-19T07:34:17.443Z,0.00
2018-05-19T07:35:17.486Z,0.00
2018-05-19T07:36:17.509Z,0.00
2018-05-19T07:37:17.575Z,0.00
2018-05-19T07:38:17.819Z,0.00
2018-05-19T07:39:17.662Z,0.00
2018-05-19T07:40:17.701Z,0.00
2018-05-19T07:41:17.760Z,0.00
2018-05-19T07:42:17.785Z,0.00
2018-05-19T07:43:17.854Z,0.00
2018-05-19T07:44:17.997Z,0.00
2018-05-19T07:45:17.946Z,0.00
2018-05-19T07:46:17.983Z,0.00
2018-05-19T07:47:18.016Z,0.00
2018-05-19T07:48:18.066Z,0.00
2018-05-19T07:49:18.114Z,0.00
2018-05-19T07:50:18.164Z,0.00
2018-05-19T07:51:18.224Z,0.00
2018-05-19T07:52:18.263Z,0.00
2018-05-19T07:53:18.312Z,0.00
2018-05-19T07:54:18.449Z,0.00
2018-05-19T07:55:18.401Z,0.00
2018-05-19T07:56:18.443Z,0.00
2018-05-19T07:57:18.482Z,0.00
2018-05-19T07:58:18.628Z,0.00
2018-05-19T07:59:18.577Z,0.00
2018-05-19T08:00:18.622Z,0.00
2018-05-19T08:01:18.689Z,0.00
2018-05-19T08:02:18.723Z,0.00
2018-05-19T08:03:18.756Z,0.00
2018-05-19T08:04:19.018Z,0.00
2018-05-19T08:05:18.858Z,0.00
2018-05-19T08:06:18.896Z,0.00
2018-05-19T08:07:18.934Z,0.00
2018-05-19T08:08:18.981Z,0.00
2018-05-19T08:09:19.150Z,0.00
2018-05-19T08:10:19.097Z,0.00
2018-05-19T08:11:19.130Z,0.00
2018-05-19T08:12:19.269Z,0.00
2018-05-19T08:13:19.215Z,0.00
2018-05-19T08:14:19.266Z,0.00
2018-05-19T08:15:19.519Z,0.00
2018-05-19T08:16:19.347Z,0.00
2018-05-19T08:17:19.409Z,0.00
2018-05-19T08:18:19.461Z,0.00
2018-05-19T08:19:19.507Z,0.00
2018-05-19T08:20:19.722Z,0.00
2018-05-19T08:21:19.579Z,0.00
2018-05-19T08:22:19.627Z,0.00
2018-05-19T08:23:19.691Z,0.00
2018-05-19T08:24:19.736Z,0.00
2018-05-19T08:25:19.764Z,0.00
2018-05-19T08:26:19.820Z,0.00
2018-05-19T08:27:19.869Z,0.00
2018-05-19T08:28:19.905Z,0.00
2018-05-19T08:29:19.958Z,0.00
2018-05-19T08:30:20.259Z,0.00
2018-05-19T08:31:20.138Z,0.00
2018-05-19T08:32:20.089Z,0.00
2018-05-19T08:33:20.133Z,0.00
2018-05-19T08:34:20.187Z,0.00
2018-05-19T08:35:20.223Z,0.00
2018-05-19T08:36:20.264Z,0.00
2018-05-19T08:37:20.539Z,0.00
2018-05-19T08:38:20.351Z,0.00
2018-05-19T08:39:20.410Z,0.00
2018-05-19T08:40:20.452Z,0.00
2018-05-19T08:41:20.494Z,0.00
2018-05-19T08:42:20.639Z,0.00
2018-05-19T08:43:20.591Z,0.00
2018-05-19T08:44:20.651Z,0.00
2018-05-19T08:45:20.680Z,0.00
2018-05-19T08:46:20.736Z,0.00
2018-05-19T08:47:20.769Z,0.00
2018-05-19T08:48:20.823Z,0.00
2018-05-19T08:49:20.869Z,0.00
2018-05-19T08:50:20.913Z,0.00
2018-05-19T08:51:20.952Z,0.00
2018-05-19T08:52:21.545Z,0.00
2018-05-19T08:53:21.153Z,0.00
2018-05-19T08:54:21.090Z,0.00
2018-05-19T08:55:21.135Z,0.00
2018-05-19T08:56:21.190Z,0.00
2018-05-19T08:57:21.221Z,0.00
2018-05-19T08:58:21.294Z,0.00
2018-05-19T08:59:21.340Z,0.00
2018-05-19T09:00:21.384Z,0.00
2018-05-19T09:01:21.408Z,0.00
2018-05-19T09:02:21.474Z,0.00
2018-05-19T09:03:21.609Z,0.00
2018-05-19T09:04:21.559Z,0.00
2018-05-19T09:05:21.595Z,0.00
2018-05-19T09:06:21.643Z,0.00
2018-05-19T09:07:21.679Z,0.00
2018-05-19T09:08:21.732Z,0.00
2018-05-19T09:09:21.788Z,0.00
2018-05-19T09:10:21.843Z,4.00
2018-05-19T09:11:21.887Z,0.00
2018-05-19T09:12:21.914Z,4.00
2018-05-19T09:13:22.069Z,4.00
2018-05-19T09:14:22.027Z,4.00
2018-05-19T09:15:22.056Z,4.00
2018-05-19T09:16:22.113Z,4.00
2018-05-19T09:17:22.140Z,8.00
2018-05-19T09:18:22.386Z,8.00
2018-05-19T09:19:22.237Z,16.00
2018-05-19T09:20:22.279Z,16.00
2018-05-19T09:21:22.328Z,20.00
2018-05-19T09:22:22.381Z,28.00
2018-05-19T09:23:22.415Z,36.00
2018-05-19T09:24:22.926Z,44.00
2018-05-19T09:25:22.512Z,52.00
2018-05-19T09:26:22.557Z,80.00
2018-05-19T09:27:22.613Z,120.00
2018-05-19T09:28:22.650Z,144.00
2018-05-19T09:29:22.694Z,160.00
2018-05-19T09:30:22.964Z,148.00
2018-05-19T09:31:22.805Z,148.00
2018-05-19T09:32:22.832Z,168.00
2018-05-19T09:33:22.889Z,184.00
2018-05-19T09:34:22.942Z,204.00
2018-05-19T09:35:22.973Z,220.00
2018-05-19T09:36:23.026Z,248.00
2018-05-19T09:37:23.075Z,280.00
2018-05-19T09:38:23.115Z,312.00
2018-05-19T09:39:23.154Z,356.00
2018-05-19T09:40:23.547Z,408.00
2018-05-19T09:41:23.460Z,472.00
2018-05-19T09:42:23.294Z,540.00
2018-05-19T09:43:23.348Z,620.00
2018-05-19T09:44:23.380Z,716.00
2018-05-19T09:45:23.427Z,844.00
2018-05-19T09:46:23.473Z,1016.00
2018-05-19T09:47:23.548Z,1188.00
2018-05-19T09:48:23.575Z,1280.00
2018-05-19T09:49:23.619Z,1292.00
2018-05-19T09:50:23.674Z,1336.00
2018-05-19T09:51:23.792Z,1428.00
2018-05-19T09:52:23.755Z,1524.00
2018-05-19T09:53:23.787Z,1608.00
2018-05-19T09:54:23.836Z,1676.00
2018-05-19T09:55:23.887Z,1720.00
2018-05-19T09:56:24.124Z,1756.00
2018-05-19T09:57:23.979Z,1784.00
2018-05-19T09:58:24.014Z,1784.00
2018-05-19T09:59:24.124Z,1792.00
2018-05-19T10:00:24.137Z,1808.00
2018-05-19T10:01:24.170Z,1820.00
2018-05-19T10:02:24.203Z,1836.00
2018-05-19T10:03:24.276Z,1868.00
2018-05-19T10:04:24.308Z,1920.00
2018-05-19T10:05:24.349Z,1984.00
2018-05-19T10:06:24.509Z,2056.00
2018-05-19T10:07:24.643Z,2168.00
2018-05-19T10:08:24.491Z,2280.00
2018-05-19T10:09:24.535Z,2404.00
2018-05-19T10:10:24.571Z,2520.00
2018-05-19T10:11:24.623Z,2676.00
2018-05-19T10:12:24.671Z,2904.00
2018-05-19T10:13:24.821Z,3164.00
2018-05-19T10:14:24.760Z,3472.00
2018-05-19T10:15:24.846Z,3820.00
2018-05-19T10:16:24.847Z,4216.00
2018-05-19T10:17:24.903Z,4652.00
2018-05-19T10:18:25.133Z,5080.00
2018-05-19T10:19:25.009Z,5512.00
2018-05-19T10:20:25.031Z,6024.00
2018-05-19T10:21:25.090Z,6520.00
2018-05-19T10:22:25.117Z,6992.00
2018-05-19T10:23:25.183Z,7184.00
2018-05-19T10:24:25.330Z,7428.00
2018-05-19T10:25:25.363Z,7580.00
2018-05-19T10:26:25.317Z,7592.00
2018-05-19T10:27:25.371Z,7548.00
2018-05-19T10:28:25.407Z,7416.00
2018-05-19T10:29:25.455Z,7148.00
2018-05-19T10:30:25.515Z,7036.00
2018-05-19T10:31:25.547Z,6888.00
2018-05-19T10:32:25.585Z,6744.00
2018-05-19T10:33:25.641Z,6536.00
2018-05-19T10:34:25.700Z,6204.00
2018-05-19T10:35:25.845Z,6196.00
2018-05-19T10:36:25.983Z,6084.00
2018-05-19T10:37:25.840Z,6040.00
2018-05-19T10:38:25.890Z,6044.00
2018-05-19T10:39:25.918Z,6048.00
2018-05-19T10:40:25.960Z,6204.00
2018-05-19T10:41:26.029Z,6296.00
2018-05-19T10:42:26.167Z,6472.00
2018-05-19T10:43:26.100Z,6596.00
2018-05-19T10:44:26.163Z,6684.00
2018-05-19T10:45:26.199Z,6728.00
2018-05-19T10:46:26.251Z,6788.00
2018-05-19T10:47:26.310Z,6640.00
2018-05-19T10:48:26.442Z,6448.00
2018-05-19T10:49:26.388Z,6504.00
2018-05-19T10:50:26.440Z,6532.00
2018-05-19T10:51:26.480Z,6408.00
2018-05-19T10:52:26.545Z,6488.00
2018-05-19T10:53:26.583Z,6584.00
2018-05-19T10:54:26.618Z,6900.00
2018-05-19T10:55:26.674Z,7236.00
2018-05-19T10:56:26.724Z,7772.00
2018-05-19T10:57:26.761Z,8180.00
2018-05-19T10:58:26.918Z,8540.00
2018-05-19T10:59:26.870Z,8812.00
2018-05-19T11:00:26.909Z,8980.00
2018-05-19T11:01:26.949Z,9112.00
2018-05-19T11:02:26.998Z,9056.00
2018-05-19T11:03:27.262Z,8752.00
2018-05-19T11:04:27.104Z,7932.00
2018-05-19T11:05:27.152Z,8024.00
2018-05-19T11:06:27.192Z,8472.00
2018-05-19T11:07:27.241Z,8900.00
2018-05-19T11:08:27.285Z,8568.00
2018-05-19T11:09:27.350Z,9088.00
2018-05-19T11:10:27.380Z,10032.00
2018-05-19T11:11:27.440Z,11672.00
2018-05-19T11:12:27.491Z,13920.00
2018-05-19T11:13:27.630Z,17344.00
2018-05-19T11:14:27.795Z,30816.00
2018-05-19T11:15:27.626Z,32640.00
2018-05-19T11:16:27.670Z,24992.00
2018-05-19T11:17:27.716Z,18144.00
2018-05-19T11:18:27.841Z,29632.00
2018-05-19T11:19:27.825Z,13924.00
2018-05-19T11:20:27.975Z,22560.00
2018-05-19T11:21:27.919Z,15120.00
2018-05-19T11:22:27.960Z,35424.00
2018-05-19T11:23:27.998Z,32288.00
2018-05-19T11:24:28.058Z,16608.00
2018-05-19T11:25:28.110Z,24864.00
2018-05-19T11:26:28.157Z,18688.00
2018-05-19T11:27:28.211Z,22400.00
2018-05-19T11:29:28.299Z,31808.00
2018-05-19T11:30:28.452Z,45952.00
2018-05-19T11:31:28.417Z,43040.00
2018-05-19T11:32:28.469Z,46656.00
2018-05-19T11:33:28.508Z,43360.00
2018-05-19T11:34:28.554Z,41920.00
2018-05-19T11:35:28.613Z,38464.00
2018-05-19T11:36:28.767Z,29664.00
2018-05-19T11:37:28.709Z,29536.00
2018-05-19T11:38:28.764Z,26272.00
2018-05-19T11:39:28.817Z,14712.00
2018-05-19T11:40:28.846Z,16256.00
2018-05-19T11:41:28.943Z,22432.00
2018-05-19T11:42:29.054Z,21856.00
2018-05-19T11:43:29.018Z,22464.00
2018-05-19T11:44:29.078Z,23936.00
2018-05-19T11:45:29.107Z,28096.00
2018-05-19T11:46:29.158Z,27360.00
2018-05-19T11:47:29.425Z,21696.00
2018-05-19T11:48:29.253Z,24608.00
2018-05-19T11:49:29.318Z,33536.00
2018-05-19T11:50:29.365Z,25248.00
2018-05-19T11:51:29.422Z,24544.00
2018-05-19T11:52:29.480Z,23296.00
2018-05-19T11:53:29.614Z,22112.00
2018-05-19T11:54:29.562Z,21088.00
2018-05-19T11:55:29.608Z,20192.00
2018-05-19T11:56:29.661Z,18944.00
2018-05-19T11:57:29.708Z,18112.00
2018-05-19T11:58:29.784Z,14872.00
2018-05-19T11:59:30.023Z,10328.00
2018-05-19T12:00:29.883Z,8304.00
2018-05-19T12:01:29.932Z,6548.00
2018-05-19T12:02:29.975Z,4828.00
2018-05-19T12:03:30.019Z,3100.00
2018-05-19T12:04:30.082Z,6284.00
2018-05-19T12:05:30.114Z,8824.00
2018-05-19T12:06:30.179Z,7768.00
2018-05-19T12:07:30.234Z,5376.00
2018-05-19T12:08:30.270Z,7956.00
2018-05-19T12:09:30.420Z,10584.00
2018-05-19T12:10:30.367Z,11404.00
2018-05-19T12:11:30.418Z,13396.00
2018-05-19T12:12:30.486Z,18656.00
2018-05-19T12:13:30.520Z,18816.00
2018-05-19T12:14:30.573Z,10304.00
2018-05-19T12:15:30.601Z,4204.00
2018-05-19T12:16:30.774Z,1464.00
2018-05-19T12:17:30.708Z,1140.00
2018-05-19T12:18:30.762Z,768.00
2018-05-19T12:19:30.827Z,852.00
2018-05-19T12:20:30.854Z,1196.00
2018-05-19T12:21:30.901Z,1392.00
2018-05-19T12:22:30.953Z,1728.00
2018-05-19T12:23:30.997Z,1276.00
2018-05-19T12:24:31.039Z,1764.00
2018-05-19T12:25:31.087Z,2084.00
2018-05-19T12:26:31.337Z,1780.00
2018-05-19T12:27:31.172Z,1624.00
2018-05-19T12:28:31.205Z,2272.00
2018-05-19T12:29:31.257Z,2812.00
2018-05-19T12:30:31.316Z,3184.00
2018-05-19T12:31:31.460Z,4280.00
2018-05-19T12:32:31.393Z,4672.00
2018-05-19T12:33:31.449Z,4564.00
2018-05-19T12:34:31.478Z,4472.00
2018-05-19T12:35:31.524Z,4040.00
2018-05-19T12:36:31.572Z,4888.00
2018-05-19T12:37:31.727Z,5500.00
2018-05-19T12:38:31.663Z,5960.00
2018-05-19T12:39:31.706Z,6076.00
2018-05-19T12:40:31.741Z,6068.00
2018-05-19T12:41:31.884Z,5992.00
2018-05-19T12:42:31.839Z,5696.00
2018-05-19T12:43:31.892Z,5192.00
2018-05-19T12:44:31.921Z,4720.00
2018-05-19T12:45:31.951Z,4428.00
2018-05-19T12:46:31.997Z,4676.00
2018-05-19T12:47:32.137Z,5732.00
2018-05-19T12:48:32.093Z,7040.00
2018-05-19T12:49:32.143Z,7808.00
2018-05-19T12:50:32.192Z,7808.00
2018-05-19T12:51:32.218Z,7580.00
2018-05-19T12:52:32.262Z,7864.00
2018-05-19T12:53:32.533Z,9140.00
2018-05-19T12:54:32.366Z,10856.00
2018-05-19T12:55:32.393Z,12936.00
2018-05-19T12:56:32.454Z,14268.00
2018-05-19T12:57:32.560Z,15344.00